createdAt,value
2019-03-24T00:00:01.470Z,47.23
2019-03-24T00:02:31.171Z,44.42
2019-03-24T00:05:01.981Z,48.73
2019-03-24T00:07:31.638Z,47.00
2019-03-24T00:10:01.212Z,49.90
2019-03-24T00:12:36.839Z,46.65
2019-03-24T00:15:09.516Z,45.00
2019-03-24T00:17:40.133Z,44.55
2019-03-24T00:20:17.551Z,45.67
2019-03-24T00:22:47.154Z,46.08
2019-03-24T00:25:19.724Z,46.77
2019-03-24T00:27:55.164Z,46.35
2019-03-24T00:30:30.851Z,50.48
2019-03-24T00:33:02.415Z,48.92
2019-03-24T00:35:31.919Z,47.40
2019-03-24T00:38:02.427Z,49.03
2019-03-24T00:40:38.923Z,46.98
2019-03-24T00:43:08.585Z,48.00
2019-03-24T00:45:38.021Z,48.83
2019-03-24T00:48:07.694Z,49.10
2019-03-24T00:50:41.397Z,47.17
2019-03-24T00:53:10.986Z,48.52
2019-03-24T00:55:40.618Z,49.30
2019-03-24T00:58:10.234Z,50.33
2019-03-24T01:00:52.437Z,48.20
2019-03-24T01:03:21.943Z,49.00
2019-03-24T01:05:51.529Z,49.60
2019-03-24T01:08:23.174Z,50.95
2019-03-24T01:10:52.803Z,50.40
2019-03-24T01:13:22.331Z,51.15
2019-03-24T01:16:04.215Z,48.00
2019-03-24T01:18:33.817Z,49.88
2019-03-24T01:21:05.447Z,45.25
2019-03-24T01:23:35.073Z,50.75
2019-03-24T01:26:05.713Z,50.30
2019-03-24T01:28:35.324Z,50.55
2019-03-24T01:31:04.853Z,46.63
2019-03-24T01:33:34.519Z,48.95
2019-03-24T01:36:04.121Z,51.85
2019-03-24T01:38:33.654Z,53.35
2019-03-24T01:41:04.331Z,51.83
2019-03-24T01:43:33.934Z,50.12
2019-03-24T01:46:06.757Z,50.65
2019-03-24T01:48:48.509Z,50.08
2019-03-24T01:51:18.105Z,50.92
2019-03-24T01:53:47.662Z,49.65
2019-03-24T01:56:17.120Z,50.70
2019-03-24T01:58:46.614Z,54.13
2019-03-24T02:01:16.270Z,54.77
2019-03-24T02:03:49.022Z,50.80
2019-03-24T02:06:18.602Z,51.45
2019-03-24T02:08:48.174Z,48.63
2019-03-24T02:11:18.711Z,50.30
2019-03-24T02:13:50.207Z,52.85
2019-03-24T02:16:19.869Z,53.05
2019-03-24T02:18:49.407Z,51.73
2019-03-24T02:21:19.082Z,50.88
2019-03-24T02:23:48.650Z,53.15
2019-03-24T02:26:20.122Z,49.05
2019-03-24T02:28:49.598Z,50.98
2019-03-24T02:31:19.160Z,49.10
2019-03-24T02:33:48.691Z,47.70
2019-03-24T02:36:18.359Z,49.60
2019-03-24T02:38:47.862Z,52.30
2019-03-24T02:41:17.366Z,53.40
2019-03-24T02:43:46.845Z,51.05
2019-03-24T02:46:24.049Z,53.30
2019-03-24T02:48:47.715Z,52.95
2019-03-24T02:51:17.256Z,51.13
2019-03-24T02:53:46.815Z,53.70
2019-03-24T02:56:16.341Z,51.83
2019-03-24T02:58:45.846Z,52.43
2019-03-24T03:01:15.406Z,51.90
2019-03-24T03:03:46.042Z,51.45
2019-03-24T03:06:15.628Z,56.95
2019-03-24T03:08:45.099Z,50.85
2019-03-24T03:11:14.636Z,47.23
2019-03-24T03:13:45.204Z,49.53
2019-03-24T03:16:17.885Z,47.90
2019-03-24T03:18:47.458Z,49.42
2019-03-24T03:21:17.058Z,51.25
2019-03-24T03:23:46.588Z,49.95
2019-03-24T03:26:16.146Z,51.80
2019-03-24T03:28:45.615Z,54.55
2019-03-24T03:31:15.083Z,54.83
2019-03-24T03:33:44.757Z,53.48
2019-03-24T03:36:14.420Z,52.50
2019-03-24T03:38:46.103Z,49.20
2019-03-24T03:41:18.731Z,50.95
2019-03-24T03:43:48.344Z,54.93
2019-03-24T03:46:17.854Z,53.60
2019-03-24T03:48:47.447Z,51.05
2019-03-24T03:51:17.117Z,55.38
2019-03-24T03:53:46.706Z,53.92
2019-03-24T03:56:16.197Z,52.75
2019-03-24T03:58:48.851Z,55.03
2019-03-24T04:01:20.295Z,53.50
2019-03-24T04:03:49.904Z,54.23
2019-03-24T04:06:19.479Z,55.17
2019-03-24T04:08:50.944Z,54.63
2019-03-24T04:11:20.416Z,53.60
2019-03-24T04:13:54.992Z,52.27
2019-03-24T04:16:27.650Z,52.50
2019-03-24T04:19:09.422Z,52.70
2019-03-24T04:21:44.819Z,54.40
2019-03-24T04:24:14.368Z,58.20
2019-03-24T04:26:43.807Z,52.83
2019-03-24T04:29:13.304Z,52.13
2019-03-24T04:31:43.749Z,53.10
2019-03-24T04:34:13.286Z,54.05
2019-03-24T04:36:44.709Z,54.53
2019-03-24T04:39:14.205Z,53.85
2019-03-24T04:41:43.802Z,52.85
2019-03-24T04:44:13.308Z,53.45
2019-03-24T04:46:44.749Z,54.55
2019-03-24T04:49:14.232Z,57.73
2019-03-24T04:51:43.713Z,56.48
2019-03-24T04:54:13.177Z,57.17
2019-03-24T04:56:42.593Z,54.70
2019-03-24T04:59:12.340Z,52.88
2019-03-24T05:01:47.753Z,53.38
2019-03-24T05:04:17.413Z,56.98
2019-03-24T05:06:47.148Z,53.38
2019-03-24T05:09:16.689Z,50.65
2019-03-24T05:11:46.149Z,52.65
2019-03-24T05:14:15.525Z,53.02
2019-03-24T05:16:44.917Z,52.43
2019-03-24T05:19:14.445Z,53.73
2019-03-24T05:21:44.010Z,51.55
2019-03-24T05:24:13.403Z,55.58
2019-03-24T05:26:42.780Z,52.53
2019-03-24T05:29:12.445Z,50.80
2019-03-24T05:31:42.972Z,49.08
2019-03-24T05:34:12.482Z,54.35
2019-03-24T05:36:42.026Z,52.08
2019-03-24T05:39:11.537Z,51.92
2019-03-24T05:41:44.189Z,51.85
2019-03-24T05:44:13.637Z,51.98
2019-03-24T05:46:43.185Z,49.50
2019-03-24T05:49:12.700Z,47.58
2019-03-24T05:51:42.195Z,48.70
2019-03-24T05:54:12.743Z,45.50
2019-03-24T05:56:44.381Z,48.40
2019-03-24T05:59:15.865Z,48.98
2019-03-24T06:01:45.329Z,49.63
2019-03-24T06:04:14.812Z,50.35
2019-03-24T06:06:46.182Z,46.95
2019-03-24T06:09:15.685Z,50.05
2019-03-24T06:11:46.166Z,48.33
2019-03-24T06:14:15.654Z,49.25
2019-03-24T06:16:51.088Z,49.50
2019-03-24T06:19:22.518Z,51.40
2019-03-24T06:22:04.018Z,49.30
2019-03-24T06:24:33.517Z,48.85
2019-03-24T06:27:03.121Z,50.17
2019-03-24T06:29:34.673Z,47.38
2019-03-24T06:32:04.173Z,49.30
2019-03-24T06:34:39.140Z,49.80
2019-03-24T06:37:08.747Z,47.33
2019-03-24T06:39:38.249Z,50.03
2019-03-24T06:42:07.882Z,49.60
2019-03-24T06:44:37.510Z,50.85
2019-03-24T06:47:09.085Z,48.25
2019-03-24T06:49:38.619Z,46.75
2019-03-24T06:52:10.226Z,47.98
2019-03-24T06:54:39.773Z,47.03
2019-03-24T06:57:11.335Z,49.93
2019-03-24T06:59:44.937Z,46.80
2019-03-24T07:02:19.645Z,49.83
2019-03-24T07:04:49.085Z,48.02
2019-03-24T07:07:18.579Z,49.77
2019-03-24T07:10:00.412Z,49.33
2019-03-24T07:12:31.915Z,50.37
2019-03-24T07:15:19.840Z,46.08
2019-03-24T07:17:55.608Z,47.57
2019-03-24T07:20:25.341Z,48.27
2019-03-24T07:22:54.983Z,49.93
2019-03-24T07:25:30.746Z,48.65
2019-03-24T07:28:00.198Z,45.88
2019-03-24T07:30:31.639Z,48.00
2019-03-24T07:33:02.095Z,46.92
2019-03-24T07:35:40.702Z,50.65
2019-03-24T07:38:10.278Z,50.05
2019-03-24T07:40:45.864Z,49.80
2019-03-24T07:43:15.410Z,50.25
2019-03-24T07:45:44.989Z,49.75
2019-03-24T07:48:19.419Z,48.33
2019-03-24T07:50:46.929Z,49.48
2019-03-24T07:53:16.515Z,51.65
2019-03-24T07:55:47.181Z,50.50
2019-03-24T07:58:16.762Z,52.80
2019-03-24T08:00:46.436Z,47.98
2019-03-24T08:03:15.854Z,47.75
2019-03-24T08:05:45.547Z,47.38
2019-03-24T08:08:15.016Z,48.15
2019-03-24T08:10:44.597Z,48.48
2019-03-24T08:13:22.271Z,48.20
2019-03-24T08:15:53.879Z,49.60
2019-03-24T08:18:29.990Z,47.40
2019-03-24T08:20:54.710Z,48.40
2019-03-24T08:23:24.382Z,48.73
2019-03-24T08:25:54.026Z,49.00
2019-03-24T08:28:23.539Z,52.27
2019-03-24T08:30:56.324Z,52.63
2019-03-24T08:33:26.046Z,50.52
2019-03-24T08:35:55.529Z,49.15
2019-03-24T08:38:25.115Z,49.20
2019-03-24T08:40:54.639Z,49.53
2019-03-24T08:43:24.242Z,52.70
2019-03-24T08:45:55.698Z,48.80
2019-03-24T08:48:25.245Z,49.50
2019-03-24T08:50:54.818Z,48.93
2019-03-24T08:53:24.366Z,50.07
2019-03-24T08:55:53.954Z,48.47
2019-03-24T08:58:34.320Z,48.30
2019-03-24T09:01:06.829Z,49.57
2019-03-24T09:03:36.321Z,46.20
2019-03-24T09:06:05.946Z,46.58
2019-03-24T09:08:36.550Z,48.60
2019-03-24T09:11:08.230Z,45.17
2019-03-24T09:13:37.809Z,47.53
2019-03-24T09:16:09.481Z,48.42
2019-03-24T09:18:39.055Z,47.77
2019-03-24T09:21:10.588Z,49.87
2019-03-24T09:23:40.160Z,47.60
2019-03-24T09:26:10.694Z,50.70
2019-03-24T09:28:40.287Z,48.63
2019-03-24T09:31:13.804Z,48.30
2019-03-24T09:33:46.235Z,49.23
2019-03-24T09:36:15.765Z,47.40
2019-03-24T09:38:45.210Z,47.77
2019-03-24T09:41:20.886Z,46.63
2019-03-24T09:43:51.458Z,47.20
2019-03-24T09:46:37.334Z,49.30
2019-03-24T09:49:10.800Z,48.50
2019-03-24T09:51:41.989Z,46.43
2019-03-24T09:54:13.606Z,49.47
2019-03-24T09:56:54.952Z,46.07
2019-03-24T09:59:24.488Z,47.17
2019-03-24T10:01:59.153Z,46.53
2019-03-24T10:04:28.608Z,49.63
2019-03-24T10:07:01.140Z,47.07
2019-03-24T10:09:32.773Z,47.90
2019-03-24T10:12:23.021Z,46.73
2019-03-24T10:14:58.579Z,45.47
2019-03-24T10:17:28.108Z,44.60
2019-03-24T10:20:07.602Z,46.80
2019-03-24T10:22:38.264Z,45.10
2019-03-24T10:25:08.911Z,44.80
2019-03-24T10:27:38.364Z,46.87
2019-03-24T10:30:08.330Z,43.37
2019-03-24T10:32:39.972Z,45.10
2019-03-24T10:35:09.689Z,47.53
2019-03-24T10:37:39.250Z,45.57
2019-03-24T10:40:09.129Z,42.27
2019-03-24T10:42:40.752Z,43.87
2019-03-24T10:45:19.583Z,43.67
2019-03-24T10:47:54.213Z,46.77
2019-03-24T10:50:24.859Z,42.37
2019-03-24T10:52:54.381Z,48.77
2019-03-24T10:55:25.818Z,44.70
2019-03-24T10:58:00.136Z,44.13
2019-03-24T11:00:40.862Z,45.90
2019-03-24T11:03:19.971Z,47.17
2019-03-24T11:05:49.620Z,45.47
2019-03-24T11:08:19.229Z,46.43
2019-03-24T11:10:50.917Z,47.23
2019-03-24T11:13:21.553Z,47.53
2019-03-24T11:15:51.205Z,46.50
2019-03-24T11:18:38.764Z,48.00
2019-03-24T11:21:16.158Z,45.67
2019-03-24T11:23:45.667Z,47.70
2019-03-24T11:26:15.253Z,48.40
2019-03-24T11:28:50.835Z,46.37
2019-03-24T11:31:37.401Z,47.43
2019-03-24T11:34:13.658Z,45.90
2019-03-24T11:36:43.407Z,43.87
2019-03-24T11:39:12.986Z,46.00
2019-03-24T11:41:42.574Z,46.67
2019-03-24T11:44:15.078Z,43.47
2019-03-24T11:46:44.680Z,45.47
2019-03-24T11:49:22.383Z,46.57
2019-03-24T11:52:07.472Z,45.13
2019-03-24T11:54:37.130Z,42.90
2019-03-24T11:57:21.874Z,44.83
2019-03-24T11:59:52.484Z,42.80
2019-03-24T12:02:24.096Z,43.37
2019-03-24T12:04:53.703Z,42.90
2019-03-24T12:07:23.335Z,41.60
2019-03-24T12:09:54.886Z,43.00
2019-03-24T12:12:24.588Z,44.90
2019-03-24T12:15:08.517Z,39.37
2019-03-24T12:17:45.315Z,38.97
2019-03-24T12:20:14.947Z,39.20
2019-03-24T12:22:46.575Z,39.03
2019-03-24T12:25:17.099Z,40.80
2019-03-24T12:28:01.769Z,39.43
2019-03-24T12:30:35.904Z,38.67
2019-03-24T12:33:11.520Z,41.67
2019-03-24T12:35:41.057Z,40.30
2019-03-24T12:38:10.631Z,39.03
2019-03-24T12:40:43.228Z,37.00
2019-03-24T12:43:19.450Z,37.13
2019-03-24T12:45:56.047Z,38.27
2019-03-24T12:48:25.783Z,35.20
2019-03-24T12:50:58.551Z,38.13
2019-03-24T12:53:29.162Z,37.30
2019-03-24T12:56:04.687Z,36.60
2019-03-24T12:58:34.251Z,33.63
2019-03-24T13:01:03.953Z,34.80
2019-03-24T13:03:42.640Z,39.17
2019-03-24T13:06:16.983Z,35.90
2019-03-24T13:08:47.624Z,35.77
2019-03-24T13:11:17.295Z,37.30
2019-03-24T13:13:47.959Z,38.73
2019-03-24T13:16:17.678Z,37.73
2019-03-24T13:18:47.144Z,37.57
2019-03-24T13:21:16.631Z,38.13
2019-03-24T13:23:46.092Z,36.73
2019-03-24T13:26:15.753Z,36.53
2019-03-24T13:28:45.369Z,37.80
2019-03-24T13:31:14.939Z,36.37
2019-03-24T13:33:44.527Z,36.80
2019-03-24T13:36:14.950Z,35.97
2019-03-24T13:38:44.618Z,37.57
2019-03-24T13:41:14.219Z,36.60
2019-03-24T13:43:43.832Z,35.43
2019-03-24T13:46:13.427Z,36.03
2019-03-24T13:48:43.022Z,36.40
2019-03-24T13:51:12.549Z,37.57
2019-03-24T13:53:42.140Z,34.33
2019-03-24T13:56:14.818Z,38.50
2019-03-24T13:58:44.389Z,34.50
2019-03-24T14:01:14.865Z,37.20
2019-03-24T14:03:44.372Z,35.43
2019-03-24T14:06:22.838Z,35.20
2019-03-24T14:08:52.352Z,35.63
2019-03-24T14:11:24.148Z,35.47
2019-03-24T14:13:59.114Z,38.00
2019-03-24T14:16:28.588Z,35.13
2019-03-24T14:18:58.162Z,37.07
2019-03-24T14:21:27.779Z,35.40
2019-03-24T14:23:57.278Z,38.33
2019-03-24T14:26:26.779Z,34.73
2019-03-24T14:28:56.377Z,35.83
2019-03-24T14:31:25.883Z,39.17
2019-03-24T14:33:55.399Z,35.30
2019-03-24T14:36:24.934Z,35.77
2019-03-24T14:38:54.591Z,36.43
2019-03-24T14:41:24.216Z,34.80
2019-03-24T14:43:53.887Z,33.73
2019-03-24T14:46:23.518Z,37.70
2019-03-24T14:48:53.181Z,34.70
2019-03-24T14:51:22.835Z,35.67
2019-03-24T14:53:52.449Z,38.63
2019-03-24T14:56:22.179Z,36.70
2019-03-24T14:58:51.797Z,38.23
2019-03-24T15:01:21.471Z,38.73
2019-03-24T15:03:51.104Z,36.80
2019-03-24T15:06:20.787Z,40.53
2019-03-24T15:08:50.428Z,38.50
2019-03-24T15:11:20.343Z,40.37
2019-03-24T15:13:49.944Z,36.37
2019-03-24T15:16:19.609Z,37.87
2019-03-24T15:18:49.214Z,39.17
2019-03-24T15:21:19.820Z,38.53
2019-03-24T15:23:49.347Z,40.83
2019-03-24T15:26:18.911Z,37.23
2019-03-24T15:28:48.438Z,39.00
2019-03-24T15:31:18.025Z,39.03
2019-03-24T15:33:47.458Z,39.87
2019-03-24T15:36:20.048Z,36.97
2019-03-24T15:38:49.685Z,37.50
2019-03-24T15:41:19.496Z,37.60
2019-03-24T15:43:49.165Z,36.87
2019-03-24T15:46:19.675Z,35.83
2019-03-24T15:48:50.394Z,37.33
2019-03-24T15:51:26.051Z,36.40
2019-03-24T15:53:55.546Z,39.80
2019-03-24T15:56:25.151Z,38.90
2019-03-24T15:58:54.660Z,38.20
2019-03-24T16:01:24.282Z,37.50
2019-03-24T16:03:53.908Z,36.60
2019-03-24T16:06:23.534Z,35.33
2019-03-24T16:08:53.125Z,36.13
2019-03-24T16:11:22.755Z,37.63
2019-03-24T16:13:54.344Z,33.57
2019-03-24T16:16:23.955Z,48.20
2019-03-24T16:18:53.473Z,33.60
2019-03-24T16:21:27.716Z,34.50
2019-03-24T16:23:56.451Z,35.73
2019-03-24T16:26:25.972Z,34.63
2019-03-24T16:28:55.598Z,35.70
2019-03-24T16:31:25.124Z,33.53
2019-03-24T16:33:54.763Z,35.80
2019-03-24T16:36:45.980Z,34.27
2019-03-24T16:39:22.461Z,34.00
2019-03-24T16:41:53.108Z,36.20
2019-03-24T16:44:31.894Z,33.67
2019-03-24T16:47:07.438Z,35.17
2019-03-24T16:49:43.063Z,34.17
2019-03-24T16:52:27.904Z,35.23
2019-03-24T16:54:59.472Z,35.17
2019-03-24T16:57:39.243Z,33.57
2019-03-24T17:00:12.062Z,34.93
2019-03-24T17:02:41.666Z,33.90
2019-03-24T17:05:11.288Z,35.60
2019-03-24T17:07:46.741Z,38.37
2019-03-24T17:10:24.138Z,34.90
2019-03-24T17:13:00.582Z,34.80
2019-03-24T17:15:36.042Z,34.63
2019-03-24T17:18:14.554Z,34.88
2019-03-24T17:20:44.178Z,38.98
2019-03-24T17:23:23.237Z,35.77
2019-03-24T17:25:52.911Z,37.40
2019-03-24T17:28:22.434Z,36.33
2019-03-24T17:30:52.076Z,38.30
2019-03-24T17:33:25.396Z,37.85
2019-03-24T17:35:55.066Z,36.43
2019-03-24T17:38:30.653Z,37.63
2019-03-24T17:41:00.119Z,36.73
2019-03-24T17:43:29.692Z,38.70
2019-03-24T17:46:00.251Z,35.07
2019-03-24T17:48:29.762Z,37.35
2019-03-24T17:51:10.672Z,35.20
2019-03-24T17:53:43.485Z,34.70
2019-03-24T17:56:13.052Z,36.50
2019-03-24T17:58:42.702Z,36.30
2019-03-24T18:01:12.275Z,34.57
2019-03-24T18:03:41.808Z,37.48
2019-03-24T18:06:11.359Z,36.20
2019-03-24T18:08:40.991Z,36.48
2019-03-24T18:11:10.652Z,35.30
2019-03-24T18:13:40.227Z,32.83
2019-03-24T18:16:09.935Z,36.15
2019-03-24T18:18:39.427Z,35.70
2019-03-24T18:21:09.217Z,35.60
2019-03-24T18:23:45.018Z,36.67
2019-03-24T18:26:14.847Z,37.67
2019-03-24T18:28:44.440Z,37.48
2019-03-24T18:31:14.214Z,35.70
2019-03-24T18:33:44.018Z,36.97
2019-03-24T18:36:13.525Z,37.08
2019-03-24T18:38:43.415Z,37.70
2019-03-24T18:41:16.171Z,35.48
2019-03-24T18:43:45.689Z,35.78
2019-03-24T18:46:15.197Z,36.30
2019-03-24T18:48:44.699Z,36.08
2019-03-24T18:51:17.002Z,36.90
2019-03-24T18:53:46.457Z,36.05
2019-03-24T18:56:15.947Z,34.23
2019-03-24T18:58:45.358Z,36.05
2019-03-24T19:01:17.635Z,34.90
2019-03-24T19:03:47.129Z,36.58
2019-03-24T19:06:19.714Z,36.00
2019-03-24T19:08:49.382Z,34.20
2019-03-24T19:11:19.006Z,34.35
2019-03-24T19:13:48.469Z,33.85
2019-03-24T19:16:21.161Z,35.13
2019-03-24T19:18:50.765Z,35.00
2019-03-24T19:21:22.390Z,36.00
2019-03-24T19:23:58.054Z,33.53
2019-03-24T19:26:27.647Z,35.78
2019-03-24T19:28:57.118Z,35.38
2019-03-24T19:31:27.575Z,35.83
2019-03-24T19:33:57.346Z,35.13
2019-03-24T19:36:26.929Z,34.70
2019-03-24T19:38:56.485Z,34.08
2019-03-24T19:41:26.057Z,35.40
2019-03-24T19:44:14.635Z,32.48
2019-03-24T19:46:44.118Z,33.92
2019-03-24T19:49:13.651Z,34.90
2019-03-24T19:51:43.128Z,37.30
2019-03-24T19:54:13.230Z,32.58
2019-03-24T19:56:42.786Z,33.25
2019-03-24T19:59:12.316Z,33.20
2019-03-24T20:01:41.734Z,32.70
2019-03-24T20:04:12.679Z,34.53
2019-03-24T20:06:42.170Z,34.98
2019-03-24T20:09:11.714Z,33.55
2019-03-24T20:11:41.288Z,31.73
2019-03-24T20:14:10.828Z,33.63
2019-03-24T20:16:40.458Z,30.43
2019-03-24T20:19:09.945Z,31.85
2019-03-24T20:21:39.529Z,29.98
2019-03-24T20:24:09.043Z,32.28
2019-03-24T20:26:38.635Z,31.90
2019-03-24T20:29:09.183Z,30.70
2019-03-24T20:31:38.742Z,31.42
2019-03-24T20:34:08.417Z,30.37
2019-03-24T20:36:37.935Z,33.10
2019-03-24T20:39:09.363Z,31.35
2019-03-24T20:41:38.940Z,29.30
2019-03-24T20:44:11.173Z,31.50
2019-03-24T20:46:39.782Z,30.32
2019-03-24T20:49:10.388Z,31.15
2019-03-24T20:51:40.042Z,31.55
2019-03-24T20:54:10.666Z,30.23
2019-03-24T20:56:40.753Z,31.00
2019-03-24T20:59:10.310Z,31.70
2019-03-24T21:01:39.963Z,32.48
2019-03-24T21:04:09.561Z,30.02
2019-03-24T21:06:39.190Z,29.50
2019-03-24T21:09:09.342Z,30.08
2019-03-24T21:11:39.034Z,28.73
2019-03-24T21:14:08.627Z,29.87
2019-03-24T21:16:38.211Z,28.73
2019-03-24T21:19:07.913Z,27.27
2019-03-24T21:21:37.507Z,27.60
2019-03-24T21:24:07.177Z,27.60
2019-03-24T21:26:36.800Z,28.57
2019-03-24T21:29:06.337Z,29.57
2019-03-24T21:31:36.761Z,27.82
2019-03-24T21:34:09.317Z,28.40
2019-03-24T21:36:38.934Z,25.68
2019-03-24T21:39:12.654Z,28.67
2019-03-24T21:41:43.175Z,27.40
2019-03-24T21:44:13.770Z,28.23
2019-03-24T21:46:44.437Z,27.37
2019-03-24T21:49:15.333Z,26.20
2019-03-24T21:51:44.914Z,27.70
2019-03-24T21:54:14.400Z,26.17
2019-03-24T21:56:43.992Z,26.17
2019-03-24T21:59:13.672Z,27.90
2019-03-24T22:01:43.194Z,27.98
2019-03-24T22:04:12.690Z,26.80
2019-03-24T22:06:42.302Z,27.40
2019-03-24T22:09:11.956Z,27.37
2019-03-24T22:11:41.624Z,26.33
2019-03-24T22:14:11.136Z,28.27
2019-03-24T22:16:40.646Z,27.50
2019-03-24T22:19:10.246Z,26.45
2019-03-24T22:21:39.767Z,25.97
2019-03-24T22:24:09.440Z,27.17
2019-03-24T22:26:38.998Z,26.07
2019-03-24T22:29:08.642Z,25.60
2019-03-24T22:31:38.245Z,24.40
2019-03-24T22:34:07.895Z,22.85
2019-03-24T22:36:37.420Z,21.20
2019-03-24T22:39:08.146Z,23.90
2019-03-24T22:41:37.823Z,21.93
2019-03-24T22:44:07.413Z,21.85
2019-03-24T22:46:36.985Z,22.45
2019-03-24T22:49:06.637Z,21.17
2019-03-24T22:51:36.201Z,20.57
2019-03-24T22:54:05.764Z,18.05
2019-03-24T22:56:35.333Z,18.27
2019-03-24T22:59:04.961Z,19.50
2019-03-24T23:01:34.646Z,19.30
2019-03-24T23:04:04.228Z,20.70
2019-03-24T23:06:33.890Z,22.05
2019-03-24T23:09:05.130Z,23.15
2019-03-24T23:11:34.686Z,23.00
2019-03-24T23:14:04.452Z,24.85
2019-03-24T23:16:34.028Z,24.05
2019-03-24T23:19:04.685Z,23.10
2019-03-24T23:21:34.233Z,23.98
2019-03-24T23:24:14.572Z,23.18
2019-03-24T23:26:35.320Z,23.60
2019-03-24T23:29:04.921Z,24.47
2019-03-24T23:31:34.490Z,24.27
2019-03-24T23:34:04.369Z,22.58
2019-03-24T23:36:33.825Z,21.87
2019-03-24T23:39:03.677Z,25.27
2019-03-24T23:41:33.141Z,22.07
2019-03-24T23:44:03.956Z,21.65
2019-03-24T23:46:33.784Z,21.85
2019-03-24T23:49:04.264Z,20.17
2019-03-24T23:51:33.737Z,19.80
2019-03-24T23:54:03.219Z,20.95
2019-03-24T23:56:32.802Z,19.65
2019-03-24T23:59:02.362Z,19.87
